createdAt,value
2023-02-13T00:00:32.365Z,12.70
2023-02-13T00:03:38.282Z,12.70
2023-02-13T00:06:40.700Z,12.80
2023-02-13T00:09:42.670Z,12.80
2023-02-13T00:12:48.401Z,12.80
2023-02-13T00:16:01.836Z,12.80
2023-02-13T00:19:04.638Z,12.80
2023-02-13T00:22:08.733Z,12.70
2023-02-13T00:25:11.242Z,12.70
2023-02-13T00:28:13.415Z,12.70
2023-02-13T00:31:23.767Z,12.70
2023-02-13T00:34:25.908Z,12.70
2023-02-13T00:37:29.749Z,12.60
2023-02-13T00:40:31.842Z,12.60
2023-02-13T00:43:34.391Z,12.70
2023-02-13T00:46:36.717Z,12.60
2023-02-13T00:49:38.825Z,12.60
2023-02-13T00:52:40.846Z,12.60
2023-02-13T00:55:43.275Z,12.60
2023-02-13T00:58:45.517Z,12.60
2023-02-13T01:01:47.602Z,12.50
2023-02-13T01:04:49.648Z,12.60
2023-02-13T01:07:52.581Z,12.60
2023-02-13T01:10:55.772Z,12.60
2023-02-13T01:13:58.082Z,12.50
2023-02-13T01:17:00.434Z,12.50
2023-02-13T01:20:02.488Z,12.50
2023-02-13T01:23:06.091Z,12.50
2023-02-13T01:26:17.923Z,12.40
2023-02-13T01:29:20.207Z,12.30
2023-02-13T01:32:22.871Z,12.30
2023-02-13T01:35:24.885Z,12.30
2023-02-13T01:38:26.880Z,12.20
2023-02-13T01:41:30.575Z,12.20
2023-02-13T01:44:47.740Z,12.20
2023-02-13T01:47:54.320Z,12.20
2023-02-13T01:51:04.699Z,12.10
2023-02-13T01:54:18.204Z,12.10
2023-02-13T01:57:25.426Z,12.00
2023-02-13T02:00:29.245Z,12.00
2023-02-13T02:03:35.299Z,11.90
2023-02-13T02:06:48.946Z,11.90
2023-02-13T02:09:54.255Z,11.80
2023-02-13T02:13:03.163Z,11.80
2023-02-13T02:16:05.549Z,11.80
2023-02-13T02:19:47.371Z,11.80
2023-02-13T02:23:04.048Z,11.80
2023-02-13T02:26:20.839Z,11.80
2023-02-13T02:29:49.825Z,11.70
2023-02-13T02:33:33.386Z,11.70
2023-02-13T02:36:58.518Z,11.70
2023-02-13T02:40:12.430Z,11.70
2023-02-13T02:43:23.482Z,11.70
2023-02-13T02:46:36.372Z,11.70
2023-02-13T02:50:02.432Z,11.70
2023-02-13T02:53:29.968Z,11.70
2023-02-13T02:56:40.919Z,11.60
2023-02-13T03:00:03.412Z,11.60
2023-02-13T03:03:40.344Z,11.60
2023-02-13T03:06:54.301Z,11.60
2023-02-13T03:10:27.816Z,11.60
2023-02-13T03:13:43.972Z,11.50
2023-02-13T03:17:05.402Z,11.50
2023-02-13T03:20:52.807Z,11.50
2023-02-13T03:24:23.001Z,11.50
2023-02-13T03:27:44.949Z,11.50
2023-02-13T03:30:50.237Z,11.50
2023-02-13T03:34:04.206Z,11.50
2023-02-13T03:37:29.879Z,11.40
2023-02-13T03:40:36.762Z,11.40
2023-02-13T03:44:04.230Z,11.40
2023-02-13T03:47:08.155Z,11.40
2023-02-13T03:50:13.414Z,11.40
2023-02-13T03:53:20.951Z,11.30
2023-02-13T03:56:44.550Z,11.30
2023-02-13T03:59:47.212Z,11.30
2023-02-13T04:03:01.358Z,11.30
2023-02-13T04:06:09.701Z,11.30
2023-02-13T04:09:11.910Z,11.30
2023-02-13T04:12:25.538Z,11.30
2023-02-13T04:15:39.076Z,11.30
2023-02-13T04:18:42.564Z,11.30
2023-02-13T04:21:44.809Z,11.20
2023-02-13T04:24:47.318Z,11.30
2023-02-13T04:27:49.561Z,11.20
2023-02-13T04:30:51.957Z,11.30
2023-02-13T04:33:54.119Z,11.20
2023-02-13T04:36:56.140Z,11.20
2023-02-13T04:39:58.164Z,11.20
2023-02-13T04:43:01.315Z,11.20
2023-02-13T04:46:04.823Z,11.20
2023-02-13T04:49:06.933Z,11.20
2023-02-13T04:52:09.069Z,11.20
2023-02-13T04:55:11.579Z,11.20
2023-02-13T04:58:13.951Z,11.20
2023-02-13T05:01:17.214Z,11.20
2023-02-13T05:04:20.495Z,11.20
2023-02-13T05:07:23.516Z,11.20
2023-02-13T05:10:27.051Z,11.20
2023-02-13T05:13:29.101Z,11.30
2023-02-13T05:16:32.426Z,11.30
2023-02-13T05:19:36.244Z,11.30
2023-02-13T05:23:01.887Z,11.30
2023-02-13T05:26:03.944Z,11.30
2023-02-13T05:29:19.041Z,11.30
2023-02-13T05:32:21.046Z,11.30
2023-02-13T05:35:23.496Z,11.30
2023-02-13T05:38:25.527Z,11.30
2023-02-13T05:41:27.655Z,11.30
2023-02-13T05:44:29.686Z,11.20
2023-02-13T05:47:31.728Z,11.30
2023-02-13T05:50:33.783Z,11.20
2023-02-13T05:53:36.220Z,11.30
2023-02-13T05:56:38.357Z,11.30
2023-02-13T05:59:40.409Z,11.30
2023-02-13T06:02:42.886Z,11.30
2023-02-13T06:05:45.176Z,11.20
2023-02-13T06:08:47.392Z,11.20
2023-02-13T06:11:50.384Z,11.20
2023-02-13T06:14:52.636Z,11.20
2023-02-13T06:17:54.701Z,11.20
2023-02-13T06:20:57.080Z,11.10
2023-02-13T06:24:00.466Z,11.10
2023-02-13T06:27:02.453Z,11.10
2023-02-13T06:30:04.694Z,11.10
2023-02-13T06:33:06.853Z,11.00
2023-02-13T06:36:09.001Z,11.00
2023-02-13T06:39:12.434Z,11.00
2023-02-13T06:42:14.511Z,10.90
2023-02-13T06:45:16.678Z,10.90
2023-02-13T06:48:18.989Z,10.90
2023-02-13T06:51:21.381Z,10.90
2023-02-13T06:54:37.137Z,10.80
2023-02-13T06:57:46.477Z,10.90
2023-02-13T07:00:48.868Z,10.80
2023-02-13T07:03:50.958Z,10.80
2023-02-13T07:06:57.091Z,10.80
2023-02-13T07:10:00.222Z,10.70
2023-02-13T07:13:05.984Z,10.70
2023-02-13T07:16:10.224Z,10.60
2023-02-13T07:19:12.336Z,10.70
2023-02-13T07:22:14.404Z,10.70
2023-02-13T07:25:16.664Z,10.70
2023-02-13T07:28:19.125Z,10.70
2023-02-13T07:31:21.399Z,10.70
2023-02-13T07:34:23.415Z,10.80
2023-02-13T07:37:27.417Z,10.80
2023-02-13T07:40:29.620Z,10.80
2023-02-13T07:43:32.043Z,10.90
2023-02-13T07:46:34.203Z,11.00
2023-02-13T07:49:37.117Z,11.00
2023-02-13T07:52:39.301Z,11.10
2023-02-13T07:55:41.424Z,11.20
2023-02-13T07:58:44.885Z,11.20
2023-02-13T08:01:47.066Z,11.20
2023-02-13T08:04:49.145Z,11.20
2023-02-13T08:07:51.366Z,11.10
2023-02-13T08:11:12.519Z,11.10
2023-02-13T08:14:14.501Z,11.10
2023-02-13T08:17:16.611Z,11.10
2023-02-13T08:20:19.013Z,11.20
2023-02-13T08:23:21.232Z,11.20
2023-02-13T08:26:23.504Z,11.20
2023-02-13T08:29:25.561Z,11.30
2023-02-13T08:32:27.838Z,11.30
2023-02-13T08:35:31.702Z,11.40
2023-02-13T08:38:34.402Z,11.50
2023-02-13T08:41:36.786Z,11.60
2023-02-13T08:44:41.179Z,11.70
2023-02-13T08:47:43.251Z,11.80
2023-02-13T08:50:45.465Z,12.10
2023-02-13T08:53:47.610Z,12.40
2023-02-13T08:56:49.673Z,12.60
2023-02-13T08:59:51.894Z,12.80
2023-02-13T09:02:54.122Z,12.80
2023-02-13T09:06:00.583Z,12.90
2023-02-13T09:09:05.684Z,13.00
2023-02-13T09:12:08.284Z,13.20
2023-02-13T09:15:10.759Z,13.20
2023-02-13T09:18:13.954Z,13.50
2023-02-13T09:21:16.973Z,13.70
2023-02-13T09:24:18.984Z,13.90
2023-02-13T09:27:22.148Z,14.00
2023-02-13T09:30:24.707Z,14.10
2023-02-13T09:33:29.172Z,14.30
2023-02-13T09:36:31.217Z,14.50
2023-02-13T09:39:33.239Z,14.60
2023-02-13T09:42:37.181Z,14.90
2023-02-13T09:45:39.868Z,14.80
2023-02-13T09:48:45.629Z,15.30
2023-02-13T09:51:56.072Z,15.70
2023-02-13T09:54:58.159Z,16.30
2023-02-13T09:58:21.993Z,17.20
2023-02-13T10:01:37.914Z,18.10
2023-02-13T10:04:49.020Z,18.80
2023-02-13T10:07:57.054Z,18.60
2023-02-13T10:11:07.931Z,17.90
2023-02-13T10:14:18.299Z,17.60
2023-02-13T10:17:45.472Z,17.40
2023-02-13T10:21:02.385Z,18.10
2023-02-13T10:24:27.724Z,18.40
2023-02-13T10:27:36.286Z,18.40
2023-02-13T10:30:52.196Z,18.50
2023-02-13T10:34:02.922Z,18.60
2023-02-13T10:37:13.941Z,19.10
2023-02-13T10:40:16.081Z,18.90
2023-02-13T10:43:21.351Z,19.00
2023-02-13T10:46:34.095Z,19.60
2023-02-13T10:49:57.415Z,20.20
2023-02-13T10:53:43.318Z,20.40
2023-02-13T10:57:16.546Z,20.50
2023-02-13T11:00:45.841Z,20.40
2023-02-13T11:04:00.424Z,20.30
2023-02-13T11:07:04.900Z,20.30
2023-02-13T11:10:17.957Z,19.70
2023-02-13T11:13:26.275Z,19.00
2023-02-13T11:16:48.832Z,19.30
2023-02-13T11:19:59.713Z,19.80
2023-02-13T11:23:29.724Z,20.10
2023-02-13T11:26:37.128Z,20.40
2023-02-13T11:29:57.091Z,20.20
2023-02-13T11:33:04.143Z,19.30
2023-02-13T11:36:16.100Z,18.80
2023-02-13T11:39:25.155Z,18.40
2023-02-13T11:42:37.236Z,18.20
2023-02-13T11:45:39.560Z,17.90
2023-02-13T11:48:43.105Z,17.70
2023-02-13T11:51:48.775Z,17.60
2023-02-13T11:55:05.188Z,17.60
2023-02-13T11:58:16.795Z,17.20
2023-02-13T12:01:26.871Z,17.00
2023-02-13T12:04:29.339Z,17.40
2023-02-13T12:07:33.587Z,17.70
2023-02-13T12:10:38.724Z,17.40
2023-02-13T12:13:42.197Z,16.90
2023-02-13T12:16:51.263Z,16.80
2023-02-13T12:19:55.974Z,16.70
2023-02-13T12:23:20.078Z,16.80
2023-02-13T12:26:38.219Z,17.40
2023-02-13T12:30:05.974Z,17.70
2023-02-13T12:33:16.776Z,17.80
2023-02-13T12:36:36.124Z,17.80
2023-02-13T12:39:46.054Z,17.80
2023-02-13T12:43:12.769Z,17.70
2023-02-13T12:46:40.081Z,17.30
2023-02-13T12:49:45.129Z,17.00
2023-02-13T12:52:59.676Z,16.90
2023-02-13T12:56:18.723Z,16.90
2023-02-13T12:59:37.055Z,16.80
2023-02-13T13:02:45.196Z,17.00
2023-02-13T13:06:12.951Z,17.10
2023-02-13T13:09:28.488Z,17.20
2023-02-13T13:13:01.327Z,17.30
2023-02-13T13:16:35.945Z,17.40
2023-02-13T13:19:38.177Z,17.40
2023-02-13T13:22:53.727Z,17.40
2023-02-13T13:25:55.798Z,17.40
2023-02-13T13:29:01.233Z,17.50
2023-02-13T13:32:07.661Z,17.60
2023-02-13T13:35:15.311Z,17.60
2023-02-13T13:38:25.538Z,17.70
2023-02-13T13:41:48.823Z,17.60
2023-02-13T13:44:50.748Z,17.50
2023-02-13T13:48:06.396Z,17.40
2023-02-13T13:51:14.189Z,17.30
2023-02-13T13:54:23.843Z,17.30
2023-02-13T13:57:27.731Z,17.30
2023-02-13T14:00:30.867Z,17.30
2023-02-13T14:03:37.111Z,17.30
2023-02-13T14:06:44.964Z,17.30
2023-02-13T14:09:47.046Z,17.40
2023-02-13T14:12:59.896Z,17.30
2023-02-13T14:16:03.296Z,17.40
2023-02-13T14:19:23.022Z,17.50
2023-02-13T14:22:28.064Z,17.60
2023-02-13T14:25:32.611Z,17.60
2023-02-13T14:28:36.032Z,17.60
2023-02-13T14:31:44.161Z,17.70
2023-02-13T14:35:01.212Z,17.60
2023-02-13T14:38:08.180Z,17.50
2023-02-13T14:41:49.400Z,17.50
2023-02-13T14:45:04.355Z,17.50
2023-02-13T14:48:12.786Z,17.40
2023-02-13T14:51:45.205Z,17.50
2023-02-13T14:54:54.579Z,17.40
2023-02-13T14:58:28.097Z,17.40
2023-02-13T15:01:50.194Z,17.40
2023-02-13T15:05:02.086Z,17.40
2023-02-13T15:08:24.197Z,17.40
2023-02-13T15:11:38.502Z,17.50
2023-02-13T15:14:40.846Z,17.40
2023-02-13T15:17:42.948Z,17.40
2023-02-13T15:20:46.326Z,17.50
2023-02-13T15:23:55.554Z,17.50
2023-02-13T15:27:02.389Z,17.50
2023-02-13T15:30:20.514Z,17.60
2023-02-13T15:33:24.601Z,17.50
2023-02-13T15:36:34.730Z,17.50
2023-02-13T15:39:36.734Z,17.50
2023-02-13T15:42:39.988Z,17.40
2023-02-13T15:45:44.464Z,17.40
2023-02-13T15:48:47.017Z,17.40
2023-02-13T15:51:50.366Z,17.40
2023-02-13T15:54:55.020Z,17.40
2023-02-13T15:57:59.514Z,17.40
2023-02-13T16:01:05.988Z,17.40
2023-02-13T16:04:12.607Z,17.40
2023-02-13T16:07:15.078Z,17.40
2023-02-13T16:10:35.303Z,17.30
2023-02-13T16:13:37.443Z,17.40
2023-02-13T16:17:05.062Z,17.40
2023-02-13T16:20:09.094Z,17.40
2023-02-13T16:23:21.537Z,17.50
2023-02-13T16:26:24.140Z,17.50
2023-02-13T16:29:27.691Z,17.50
2023-02-13T16:32:38.958Z,17.50
2023-02-13T16:35:49.204Z,17.50
2023-02-13T16:38:51.488Z,17.40
2023-02-13T16:41:54.875Z,17.50
2023-02-13T16:45:23.969Z,17.50
2023-02-13T16:48:26.554Z,17.50
2023-02-13T16:51:37.437Z,17.50
2023-02-13T16:54:55.901Z,17.40
2023-02-13T16:58:05.156Z,17.40
2023-02-13T17:01:07.389Z,17.40
2023-02-13T17:04:23.887Z,17.30
2023-02-13T17:07:29.056Z,17.40
2023-02-13T17:10:34.546Z,17.40
2023-02-13T17:13:37.680Z,17.40
2023-02-13T17:16:40.056Z,17.40
2023-02-13T17:19:44.565Z,17.30
2023-02-13T17:22:53.131Z,17.30
2023-02-13T17:25:55.637Z,17.30
2023-02-13T17:28:58.274Z,17.20
2023-02-13T17:32:00.827Z,17.10
2023-02-13T17:35:03.123Z,17.10
2023-02-13T17:38:06.531Z,17.10
2023-02-13T17:41:17.661Z,17.00
2023-02-13T17:44:19.747Z,16.90
2023-02-13T17:47:22.439Z,16.80
2023-02-13T17:50:28.970Z,16.80
2023-02-13T17:53:31.646Z,16.70
2023-02-13T17:56:33.676Z,16.60
2023-02-13T17:59:35.693Z,16.60
2023-02-13T18:02:37.744Z,16.50
2023-02-13T18:05:48.228Z,16.50
2023-02-13T18:08:50.434Z,16.40
2023-02-13T18:12:04.884Z,16.40
2023-02-13T18:15:08.000Z,16.30
2023-02-13T18:18:12.066Z,16.20
2023-02-13T18:21:14.086Z,16.20
2023-02-13T18:24:16.140Z,16.10
2023-02-13T18:27:18.350Z,16.10
2023-02-13T18:30:21.084Z,16.00
2023-02-13T18:33:28.010Z,15.90
2023-02-13T18:36:30.372Z,15.90
2023-02-13T18:39:34.390Z,15.80
2023-02-13T18:42:36.519Z,15.80
2023-02-13T18:45:39.053Z,15.80
2023-02-13T18:48:41.108Z,15.70
2023-02-13T18:51:44.543Z,15.70
2023-02-13T18:54:46.515Z,15.60
2023-02-13T18:57:52.657Z,15.60
2023-02-13T19:00:54.838Z,15.60
2023-02-13T19:03:57.337Z,15.60
2023-02-13T19:06:59.414Z,15.60
2023-02-13T19:10:01.499Z,15.60
2023-02-13T19:13:03.637Z,15.60
2023-02-13T19:16:12.499Z,15.50
2023-02-13T19:19:14.558Z,15.60
2023-02-13T19:22:16.719Z,15.60
2023-02-13T19:25:19.200Z,15.50
2023-02-13T19:28:21.686Z,15.50
2023-02-13T19:31:27.091Z,15.40
2023-02-13T19:34:29.723Z,15.40
2023-02-13T19:37:43.056Z,15.40
2023-02-13T19:40:46.137Z,15.40
2023-02-13T19:43:51.412Z,15.30
2023-02-13T19:46:53.593Z,15.30
2023-02-13T19:49:55.725Z,15.20
2023-02-13T19:52:58.076Z,15.20
2023-02-13T19:56:00.459Z,15.20
2023-02-13T19:59:03.034Z,15.20
2023-02-13T20:02:05.139Z,15.10
2023-02-13T20:05:08.913Z,15.10
2023-02-13T20:08:11.277Z,15.10
2023-02-13T20:11:15.162Z,15.10
2023-02-13T20:14:17.480Z,15.00
2023-02-13T20:17:19.743Z,15.00
2023-02-13T20:20:22.012Z,14.90
2023-02-13T20:23:24.300Z,14.90
2023-02-13T20:26:26.352Z,14.90
2023-02-13T20:29:28.461Z,14.80
2023-02-13T20:32:30.854Z,14.80
2023-02-13T20:35:32.976Z,14.70
2023-02-13T20:38:35.347Z,14.70
2023-02-13T20:41:38.464Z,14.70
2023-02-13T20:44:40.474Z,14.70
2023-02-13T20:47:43.076Z,14.70
2023-02-13T20:50:45.450Z,14.70
2023-02-13T20:53:48.489Z,14.70
2023-02-13T20:56:50.938Z,14.70
2023-02-13T20:59:53.203Z,14.70
2023-02-13T21:02:55.200Z,14.70
2023-02-13T21:05:57.301Z,14.70
2023-02-13T21:08:59.950Z,14.70
2023-02-13T21:12:02.264Z,14.70
2023-02-13T21:15:04.374Z,14.60
2023-02-13T21:18:06.476Z,14.60
2023-02-13T21:21:10.708Z,14.60
2023-02-13T21:24:16.886Z,14.60
2023-02-13T21:27:19.119Z,14.60
2023-02-13T21:30:21.805Z,14.60
2023-02-13T21:33:24.720Z,14.60
2023-02-13T21:36:27.203Z,14.50
2023-02-13T21:39:30.349Z,14.50
2023-02-13T21:42:34.581Z,14.50
2023-02-13T21:45:36.636Z,14.50
2023-02-13T21:48:41.436Z,14.50
2023-02-13T21:51:43.540Z,14.50
2023-02-13T21:54:47.948Z,14.50
2023-02-13T21:57:50.312Z,14.50
2023-02-13T22:00:52.388Z,14.40
2023-02-13T22:04:02.904Z,14.40
2023-02-13T22:07:04.988Z,14.40
2023-02-13T22:10:07.708Z,14.30
2023-02-13T22:13:09.738Z,14.20
2023-02-13T22:16:14.229Z,14.20
2023-02-13T22:19:16.646Z,14.20
2023-02-13T22:22:18.671Z,14.10
2023-02-13T22:25:20.739Z,14.10
2023-02-13T22:28:22.777Z,14.10
2023-02-13T22:31:26.233Z,14.10
2023-02-13T22:34:28.812Z,14.10
2023-02-13T22:37:31.152Z,14.00
2023-02-13T22:40:34.983Z,14.00
2023-02-13T22:43:38.120Z,14.00
2023-02-13T22:46:40.335Z,14.00
2023-02-13T22:49:43.498Z,13.90
2023-02-13T22:52:45.647Z,13.90
2023-02-13T22:55:47.712Z,13.80
2023-02-13T22:58:49.799Z,13.80
2023-02-13T23:01:51.984Z,13.80
2023-02-13T23:04:54.169Z,13.80
2023-02-13T23:07:56.217Z,13.80
2023-02-13T23:11:16.760Z,13.70
2023-02-13T23:14:22.214Z,13.70
2023-02-13T23:17:42.991Z,13.70
2023-02-13T23:20:45.411Z,13.60
2023-02-13T23:23:49.899Z,13.60
2023-02-13T23:26:52.271Z,13.60
2023-02-13T23:29:54.668Z,13.60
2023-02-13T23:32:58.767Z,13.60
2023-02-13T23:36:00.890Z,13.50
2023-02-13T23:39:03.224Z,13.50
2023-02-13T23:42:05.349Z,13.50
2023-02-13T23:45:08.804Z,13.50
2023-02-13T23:48:12.892Z,13.40
2023-02-13T23:51:14.955Z,13.30
2023-02-13T23:54:22.757Z,13.30
2023-02-13T23:57:24.872Z,13.20
